Grants Pass, Oregon
Current Conditions -  °F | °C
As of 1:16 AM on Monday 20 Oct 2014 (Local Time) from KSXT Reporting Station
Haze Haze  
Wind Chill: 50°   Ceiling: 700
Heat Index: 50°   Visibility: 0.75mi
Dew Point: 49°   Wind: 15mph
Humidity: 96%   Direction: 180°S
Pressure: 29.8"   Gusts: NA
Location:  42.44°N, 123.32°W
Report Text: KSXT 200816Z AUTO 18013KT 3/4SM BR SCT003 BKN007 OVC049 10/09 A2980 RMK AO2 RAE06 P0000 T01000094
Loading
Personal Weather Stations






























Interactive Weather Map New forecast layout! Learn more

10-Day Weather Forecast

Advertisements
Track Severe Weather on mobile